createdAt,value
2018-10-02T00:00:55.782Z,9.45
2018-10-02T00:01:55.859Z,9.51
2018-10-02T00:02:55.724Z,9.45
2018-10-02T00:03:55.810Z,9.49
2018-10-02T00:04:55.732Z,9.52
2018-10-02T00:05:55.738Z,9.54
2018-10-02T00:06:55.798Z,9.54
2018-10-02T00:07:55.730Z,9.59
2018-10-02T00:08:55.747Z,9.63
2018-10-02T00:09:55.778Z,9.62
2018-10-02T00:10:55.745Z,9.65
2018-10-02T00:11:55.727Z,9.66
2018-10-02T00:12:55.727Z,9.69
2018-10-02T00:13:55.763Z,9.7
2018-10-02T00:14:55.750Z,9.73
2018-10-02T00:15:55.867Z,9.75
2018-10-02T00:16:55.717Z,9.75
2018-10-02T00:17:55.839Z,9.76
2018-10-02T00:18:55.715Z,9.78
2018-10-02T00:19:55.790Z,9.81
2018-10-02T00:20:55.778Z,9.78
2018-10-02T00:21:55.787Z,9.79
2018-10-02T00:22:56.136Z,9.78
2018-10-02T00:23:55.753Z,9.76
2018-10-02T00:24:55.963Z,9.78
2018-10-02T00:25:55.714Z,9.79
2018-10-02T00:26:55.833Z,9.75
2018-10-02T00:27:56.007Z,9.72
2018-10-02T00:28:55.699Z,9.7
2018-10-02T00:29:55.743Z,9.69
2018-10-02T00:30:55.747Z,9.68
2018-10-02T00:31:56.291Z,9.68
2018-10-02T00:32:55.723Z,9.63
2018-10-02T00:33:56.115Z,9.66
2018-10-02T00:34:55.738Z,9.63
2018-10-02T00:35:55.952Z,9.63
2018-10-02T00:36:55.659Z,9.63
2018-10-02T00:37:55.943Z,9.65
2018-10-02T00:38:55.738Z,9.63
2018-10-02T00:39:56.054Z,9.61
2018-10-02T00:40:55.767Z,9.62
2018-10-02T00:41:55.824Z,9.62
2018-10-02T00:42:56.055Z,9.61
2018-10-02T00:43:55.819Z,9.57
2018-10-02T00:44:55.705Z,9.54
2018-10-02T00:45:55.739Z,9.54
2018-10-02T00:46:56.007Z,9.52
2018-10-02T00:47:55.783Z,9.49
2018-10-02T00:48:55.710Z,9.49
2018-10-02T00:49:55.723Z,9.45
2018-10-02T00:50:55.652Z,9.42
2018-10-02T00:51:55.762Z,9.44
2018-10-02T00:52:55.762Z,9.41
2018-10-02T00:53:55.719Z,9.41
2018-10-02T00:54:56.008Z,9.44
2018-10-02T00:55:55.698Z,9.4
2018-10-02T00:56:55.676Z,9.41
2018-10-02T00:57:55.663Z,9.42
2018-10-02T00:58:55.680Z,9.41
2018-10-02T00:59:55.689Z,9.4
2018-10-02T01:00:55.802Z,9.38
2018-10-02T01:01:55.698Z,9.41
2018-10-02T01:02:55.739Z,9.4
2018-10-02T01:03:55.749Z,9.38
2018-10-02T01:04:55.920Z,9.38
2018-10-02T01:05:55.806Z,9.37
2018-10-02T01:06:55.771Z,9.4
2018-10-02T01:07:55.652Z,9.35
2018-10-02T01:08:55.647Z,9.34
2018-10-02T01:09:56.045Z,9.34
2018-10-02T01:10:55.690Z,9.33
2018-10-02T01:11:55.663Z,9.3
2018-10-02T01:12:55.783Z,9.29
2018-10-02T01:13:55.860Z,9.27
2018-10-02T01:14:55.807Z,9.23
2018-10-02T01:15:56.032Z,9.17
2018-10-02T01:16:55.620Z,9.16
2018-10-02T01:17:55.638Z,9.19
2018-10-02T01:18:55.630Z,9.17
2018-10-02T01:19:55.680Z,9.16
2018-10-02T01:20:55.748Z,9.11
2018-10-02T01:21:55.653Z,9.07
2018-10-02T01:22:55.807Z,9.06
2018-10-02T01:23:55.624Z,9.03
2018-10-02T01:24:55.631Z,8.99
2018-10-02T01:25:55.666Z,8.96
2018-10-02T01:26:55.653Z,8.95
2018-10-02T01:27:55.610Z,8.96
2018-10-02T01:28:55.736Z,8.98
2018-10-02T01:29:55.623Z,8.95
2018-10-02T01:30:55.899Z,8.93
2018-10-02T01:31:55.609Z,8.91
2018-10-02T01:32:55.689Z,8.89
2018-10-02T01:33:55.623Z,8.86
2018-10-02T01:34:55.600Z,8.86
2018-10-02T01:35:55.632Z,8.86
2018-10-02T01:36:55.625Z,8.88
2018-10-02T01:37:55.616Z,8.89
2018-10-02T01:38:55.628Z,8.88
2018-10-02T01:39:55.630Z,8.86
2018-10-02T01:40:55.601Z,8.88
2018-10-02T01:41:55.601Z,8.86
2018-10-02T01:42:55.653Z,8.82
2018-10-02T01:43:55.688Z,8.8
2018-10-02T01:44:55.879Z,8.78
2018-10-02T01:45:55.573Z,8.75
2018-10-02T01:46:55.743Z,8.74
2018-10-02T01:47:55.670Z,8.69
2018-10-02T01:48:55.702Z,8.71
2018-10-02T01:49:55.816Z,8.71
2018-10-02T01:50:55.749Z,8.68
2018-10-02T01:51:55.706Z,8.69
2018-10-02T01:52:55.837Z,8.65
2018-10-02T01:53:55.854Z,8.64
2018-10-02T01:54:55.663Z,8.61
2018-10-02T01:55:55.604Z,8.62
2018-10-02T01:56:55.595Z,8.61
2018-10-02T01:57:55.692Z,8.55
2018-10-02T01:58:55.603Z,8.54
2018-10-02T01:59:55.546Z,8.54
2018-10-02T02:00:55.592Z,8.51
2018-10-02T02:01:55.636Z,8.51
2018-10-02T02:02:55.556Z,8.48
2018-10-02T02:03:55.821Z,8.43
2018-10-02T02:04:55.571Z,8.41
2018-10-02T02:05:55.570Z,8.41
2018-10-02T02:06:55.590Z,8.4
2018-10-02T02:07:55.562Z,8.41
2018-10-02T02:08:55.743Z,8.43
2018-10-02T02:09:55.601Z,8.41
2018-10-02T02:10:55.551Z,8.4
2018-10-02T02:11:55.574Z,8.43
2018-10-02T02:12:55.782Z,8.44
2018-10-02T02:13:55.564Z,8.45
2018-10-02T02:14:55.563Z,8.45
2018-10-02T02:15:55.542Z,8.47
2018-10-02T02:16:55.548Z,8.45
2018-10-02T02:17:55.551Z,8.43
2018-10-02T02:18:55.540Z,8.45
2018-10-02T02:19:55.528Z,8.43
2018-10-02T02:20:55.703Z,8.4
2018-10-02T02:21:55.856Z,8.38
2018-10-02T02:22:55.631Z,8.31
2018-10-02T02:23:55.696Z,8.33
2018-10-02T02:24:55.666Z,8.3
2018-10-02T02:25:55.667Z,8.3
2018-10-02T02:26:55.936Z,8.24
2018-10-02T02:27:55.626Z,8.27
2018-10-02T02:28:55.726Z,8.24
2018-10-02T02:29:55.673Z,8.21
2018-10-02T02:30:55.697Z,8.23
2018-10-02T02:31:55.538Z,8.19
2018-10-02T02:32:55.539Z,8.16
2018-10-02T02:33:55.676Z,8.14
2018-10-02T02:34:55.523Z,8.13
2018-10-02T02:35:55.531Z,8.09
2018-10-02T02:36:56.025Z,8.06
2018-10-02T02:37:55.531Z,8.03
2018-10-02T02:38:55.500Z,8.03
2018-10-02T02:39:55.517Z,8.02
2018-10-02T02:40:55.532Z,8.01
2018-10-02T02:41:55.559Z,7.99
2018-10-02T02:42:55.497Z,7.99
2018-10-02T02:43:55.530Z,7.99
2018-10-02T02:44:55.509Z,8.01
2018-10-02T02:46:55.627Z,7.92
2018-10-02T02:47:55.684Z,7.93
2018-10-02T02:48:55.638Z,7.86
2018-10-02T02:49:55.503Z,7.85
2018-10-02T02:50:55.510Z,7.82
2018-10-02T02:51:55.539Z,7.82
2018-10-02T02:52:55.496Z,7.81
2018-10-02T02:53:55.492Z,7.81
2018-10-02T02:54:55.496Z,7.77
2018-10-02T02:55:55.492Z,7.75
2018-10-02T02:56:55.648Z,7.71
2018-10-02T02:57:55.689Z,7.71
2018-10-02T02:58:55.505Z,7.71
2018-10-02T02:59:55.811Z,7.72
2018-10-02T03:00:55.495Z,7.71
2018-10-02T03:01:55.526Z,7.69
2018-10-02T03:02:55.488Z,7.69
2018-10-02T03:03:55.550Z,7.72
2018-10-02T03:04:55.481Z,7.69
2018-10-02T03:05:55.488Z,7.67
2018-10-02T03:06:55.572Z,7.68
2018-10-02T03:07:55.558Z,7.68
2018-10-02T03:08:55.477Z,7.65
2018-10-02T03:09:55.564Z,7.62
2018-10-02T03:10:55.579Z,7.61
2018-10-02T03:11:55.580Z,7.62
2018-10-02T03:12:55.565Z,7.64
2018-10-02T03:13:55.496Z,7.64
2018-10-02T03:14:55.511Z,7.61
2018-10-02T03:15:55.689Z,7.62
2018-10-02T03:16:55.461Z,7.64
2018-10-02T03:17:55.466Z,7.64
2018-10-02T03:18:55.500Z,7.65
2018-10-02T03:19:55.617Z,7.71
2018-10-02T03:20:55.559Z,7.69
2018-10-02T03:21:55.947Z,7.65
2018-10-02T03:22:55.562Z,7.68
2018-10-02T03:23:55.850Z,7.67
2018-10-02T03:24:55.661Z,7.69
2018-10-02T03:25:55.586Z,7.71
2018-10-02T03:26:55.442Z,7.74
2018-10-02T03:27:55.644Z,7.72
2018-10-02T03:28:55.440Z,7.75
2018-10-02T03:29:55.450Z,7.74
2018-10-02T03:30:55.483Z,7.75
2018-10-02T03:31:55.831Z,7.75
2018-10-02T03:32:55.478Z,7.77
2018-10-02T03:33:55.610Z,7.77
2018-10-02T03:34:55.467Z,7.81
2018-10-02T03:35:55.432Z,7.81
2018-10-02T03:36:55.852Z,7.82
2018-10-02T03:37:55.827Z,7.8
2018-10-02T03:38:55.431Z,7.78
2018-10-02T03:39:55.771Z,7.84
2018-10-02T03:40:55.561Z,7.82
2018-10-02T03:41:55.682Z,7.81
2018-10-02T03:42:55.688Z,7.82
2018-10-02T03:43:55.464Z,7.81
2018-10-02T03:44:55.527Z,7.81
2018-10-02T03:45:55.504Z,7.81
2018-10-02T03:46:55.473Z,7.8
2018-10-02T03:47:55.732Z,7.84
2018-10-02T03:48:55.897Z,7.82
2018-10-02T03:49:55.741Z,7.85
2018-10-02T03:50:55.436Z,7.84
2018-10-02T03:51:55.495Z,7.82
2018-10-02T03:52:55.559Z,7.78
2018-10-02T03:53:55.503Z,7.77
2018-10-02T03:54:55.412Z,7.8
2018-10-02T03:55:55.410Z,7.78
2018-10-02T03:56:55.448Z,7.8
2018-10-02T03:57:55.516Z,7.8
2018-10-02T03:58:55.427Z,7.77
2018-10-02T03:59:55.554Z,7.75
2018-10-02T04:00:55.421Z,7.75
2018-10-02T04:01:55.551Z,7.74
2018-10-02T04:02:55.678Z,7.74
2018-10-02T04:03:55.567Z,7.78
2018-10-02T04:04:55.465Z,7.78
2018-10-02T04:05:55.646Z,7.81
2018-10-02T04:06:55.448Z,7.8
2018-10-02T04:07:55.465Z,7.8
2018-10-02T04:08:55.424Z,7.81
2018-10-02T04:09:55.366Z,7.8
2018-10-02T04:10:55.414Z,7.81
2018-10-02T04:11:55.406Z,7.77
2018-10-02T04:12:55.464Z,7.78
2018-10-02T04:13:55.443Z,7.77
2018-10-02T04:14:55.475Z,7.77
2018-10-02T04:15:55.357Z,7.77
2018-10-02T04:16:55.356Z,7.77
2018-10-02T04:17:55.355Z,7.77
2018-10-02T04:18:55.388Z,7.77
2018-10-02T04:19:55.434Z,7.74
2018-10-02T04:20:55.375Z,7.75
2018-10-02T04:21:55.363Z,7.72
2018-10-02T04:22:55.382Z,7.69
2018-10-02T04:23:55.377Z,7.67
2018-10-02T04:24:55.376Z,7.64
2018-10-02T04:25:55.381Z,7.62
2018-10-02T04:26:55.386Z,7.64
2018-10-02T04:27:55.595Z,7.62
2018-10-02T04:28:55.358Z,7.61
2018-10-02T04:29:55.362Z,7.64
2018-10-02T04:30:55.416Z,7.64
2018-10-02T04:31:55.354Z,7.67
2018-10-02T04:32:55.722Z,7.65
2018-10-02T04:33:55.937Z,7.65
2018-10-02T04:34:55.357Z,7.64
2018-10-02T04:35:55.373Z,7.62
2018-10-02T04:36:55.411Z,7.64
2018-10-02T04:37:55.561Z,7.65
2018-10-02T04:38:55.546Z,7.64
2018-10-02T04:39:55.678Z,7.64
2018-10-02T04:40:55.459Z,7.64
2018-10-02T04:41:55.373Z,7.62
2018-10-02T04:42:55.680Z,7.62
2018-10-02T04:43:55.429Z,7.62
2018-10-02T04:44:55.506Z,7.62
2018-10-02T04:45:55.697Z,7.58
2018-10-02T04:46:55.811Z,7.59
2018-10-02T04:47:55.418Z,7.59
2018-10-02T04:48:55.311Z,7.61
2018-10-02T04:49:55.319Z,7.59
2018-10-02T04:50:55.393Z,7.58
2018-10-02T04:51:55.310Z,7.59
2018-10-02T04:52:55.394Z,7.54
2018-10-02T04:53:55.365Z,7.55
2018-10-02T04:54:55.434Z,7.53
2018-10-02T04:55:55.746Z,7.53
2018-10-02T04:56:55.569Z,7.53
2018-10-02T04:57:55.314Z,7.5
2018-10-02T04:58:55.427Z,7.47
2018-10-02T04:59:55.315Z,7.47
2018-10-02T05:00:55.333Z,7.46
2018-10-02T05:01:55.344Z,7.47
2018-10-02T05:02:55.585Z,7.46
2018-10-02T05:03:55.514Z,7.47
2018-10-02T05:04:56.123Z,7.44
2018-10-02T05:05:55.401Z,7.47
2018-10-02T05:06:55.386Z,7.47
2018-10-02T05:07:55.290Z,7.48
2018-10-02T05:08:55.325Z,7.47
2018-10-02T05:09:55.423Z,7.46
2018-10-02T05:10:58.767Z,7.5
2018-10-02T05:11:55.311Z,7.48
2018-10-02T05:12:55.608Z,7.47
2018-10-02T05:13:55.406Z,7.47
2018-10-02T05:14:55.501Z,7.47
2018-10-02T05:15:55.313Z,7.47
2018-10-02T05:16:55.300Z,7.44
2018-10-02T05:17:55.289Z,7.41
2018-10-02T05:18:55.688Z,7.44
2018-10-02T05:19:55.385Z,7.47
2018-10-02T05:20:55.354Z,7.47
2018-10-02T05:21:55.287Z,7.48
2018-10-02T05:22:55.544Z,7.46
2018-10-02T05:23:55.285Z,7.46
2018-10-02T05:24:55.329Z,7.46
2018-10-02T05:25:55.343Z,7.47
2018-10-02T05:26:55.268Z,7.47
2018-10-02T05:27:55.433Z,7.5
2018-10-02T05:28:55.371Z,7.46
2018-10-02T05:29:55.607Z,7.5
2018-10-02T05:30:55.804Z,7.51
2018-10-02T05:31:55.515Z,7.51
2018-10-02T05:32:55.486Z,7.51
2018-10-02T05:33:55.549Z,7.48
2018-10-02T05:34:55.480Z,7.46
2018-10-02T05:35:55.445Z,7.47
2018-10-02T05:36:55.640Z,7.46
2018-10-02T05:37:55.444Z,7.44
2018-10-02T05:38:55.636Z,7.43
2018-10-02T05:39:55.708Z,7.43
2018-10-02T05:40:55.440Z,7.43
2018-10-02T05:41:55.676Z,7.43
2018-10-02T05:42:55.375Z,7.43
2018-10-02T05:43:56.264Z,7.44
2018-10-02T05:44:55.635Z,7.44
2018-10-02T05:45:55.762Z,7.48
2018-10-02T05:46:55.451Z,7.46
2018-10-02T05:47:55.581Z,7.46
2018-10-02T05:48:56.432Z,7.48
2018-10-02T05:49:56.218Z,7.46
2018-10-02T05:50:57.679Z,7.47
2018-10-02T05:51:57.109Z,7.44
2018-10-02T05:52:56.490Z,7.46
2018-10-02T05:53:55.240Z,7.47
2018-10-02T05:54:58.067Z,7.51
2018-10-02T05:55:58.049Z,7.47
2018-10-02T05:56:55.199Z,7.47
2018-10-02T05:57:55.219Z,7.47
2018-10-02T05:58:55.281Z,7.47
2018-10-02T05:59:55.227Z,7.47
2018-10-02T06:00:55.198Z,7.46
2018-10-02T06:01:55.210Z,7.46
2018-10-02T06:02:55.255Z,7.44
2018-10-02T06:03:55.632Z,7.47
2018-10-02T06:04:55.425Z,7.5
2018-10-02T06:05:55.327Z,7.5
2018-10-02T06:06:55.268Z,7.53
2018-10-02T06:07:55.322Z,7.55
2018-10-02T06:08:55.466Z,7.53
2018-10-02T06:09:55.387Z,7.55
2018-10-02T06:10:55.247Z,7.55
2018-10-02T06:11:55.472Z,7.57
2018-10-02T06:12:55.380Z,7.58
2018-10-02T06:13:55.385Z,7.58
2018-10-02T06:14:55.279Z,7.58
2018-10-02T06:15:55.505Z,7.58
2018-10-02T06:16:55.494Z,7.58
2018-10-02T06:17:55.469Z,7.59
2018-10-02T06:18:55.247Z,7.61
2018-10-02T06:19:55.431Z,7.62
2018-10-02T06:20:55.281Z,7.62
2018-10-02T06:21:55.272Z,7.65
2018-10-02T06:22:55.309Z,7.64
2018-10-02T06:23:55.370Z,7.64
2018-10-02T06:24:55.249Z,7.69
2018-10-02T06:25:55.192Z,7.67
2018-10-02T06:26:55.272Z,7.68
2018-10-02T06:27:55.212Z,7.71
2018-10-02T06:28:55.343Z,7.72
2018-10-02T06:29:55.186Z,7.72
2018-10-02T06:30:55.687Z,7.75
2018-10-02T06:31:55.333Z,7.75
2018-10-02T06:32:55.233Z,7.75
2018-10-02T06:33:55.286Z,7.8
2018-10-02T06:34:55.165Z,7.81
2018-10-02T06:35:55.186Z,7.78
2018-10-02T06:36:55.604Z,7.82
2018-10-02T06:37:55.335Z,7.82
2018-10-02T06:38:55.573Z,7.81
2018-10-02T06:39:55.273Z,7.85
2018-10-02T06:40:55.203Z,7.86
2018-10-02T06:41:55.193Z,7.85
2018-10-02T06:42:55.384Z,7.86
2018-10-02T06:43:55.187Z,7.91
2018-10-02T06:44:55.272Z,7.92
2018-10-02T06:45:55.222Z,7.89
2018-10-02T06:46:55.183Z,7.89
2018-10-02T06:47:55.199Z,7.91
2018-10-02T06:48:55.543Z,7.88
2018-10-02T06:49:55.134Z,7.86
2018-10-02T06:50:55.560Z,7.88
2018-10-02T06:51:55.791Z,7.88
2018-10-02T06:52:55.453Z,7.88
2018-10-02T06:53:55.329Z,7.86
2018-10-02T06:54:55.394Z,7.89
2018-10-02T06:55:55.237Z,7.89
2018-10-02T06:56:55.347Z,7.91
2018-10-02T06:57:55.382Z,7.92
2018-10-02T06:58:55.153Z,7.92
2018-10-02T06:59:55.147Z,7.91
2018-10-02T07:00:55.140Z,7.93
2018-10-02T07:01:55.172Z,7.91
2018-10-02T07:02:55.333Z,7.89
2018-10-02T07:03:55.189Z,7.93
2018-10-02T07:04:55.129Z,7.95
2018-10-02T07:05:55.143Z,8.01
2018-10-02T07:06:55.378Z,7.98
2018-10-02T07:07:55.121Z,7.99
2018-10-02T07:08:55.290Z,8.02
2018-10-02T07:09:55.099Z,8.05
2018-10-02T07:10:55.139Z,8.05
2018-10-02T07:11:55.104Z,8.06
2018-10-02T07:12:55.124Z,8.09
2018-10-02T07:13:55.080Z,8.1
2018-10-02T07:14:55.236Z,8.14
2018-10-02T07:15:55.127Z,8.2
2018-10-02T07:16:55.081Z,8.21
2018-10-02T07:17:55.092Z,8.17
2018-10-02T07:18:55.087Z,8.14
2018-10-02T07:19:55.078Z,8.12
2018-10-02T07:20:55.217Z,8.1
2018-10-02T07:21:55.081Z,8.08
2018-10-02T07:22:55.110Z,8.1
2018-10-02T07:23:55.086Z,8.12
2018-10-02T07:24:55.094Z,8.16
2018-10-02T07:25:55.135Z,8.14
2018-10-02T07:26:55.985Z,8.23
2018-10-02T07:27:56.309Z,8.31
2018-10-02T07:28:55.162Z,8.33
2018-10-02T07:29:55.397Z,8.38
2018-10-02T07:30:55.301Z,8.38
2018-10-02T07:31:55.306Z,8.45
2018-10-02T07:32:55.405Z,8.44
2018-10-02T07:33:55.628Z,8.38
2018-10-02T07:34:55.328Z,8.43
2018-10-02T07:35:55.080Z,8.41
2018-10-02T07:36:55.444Z,8.47
2018-10-02T07:37:55.210Z,8.38
2018-10-02T07:38:55.154Z,8.38
2018-10-02T07:39:55.112Z,8.41
2018-10-02T07:40:55.187Z,8.43
2018-10-02T07:41:55.551Z,8.43
2018-10-02T07:42:55.108Z,8.44
2018-10-02T07:43:55.009Z,8.44
2018-10-02T07:45:55.100Z,8.47
2018-10-02T07:46:55.184Z,8.52
2018-10-02T07:47:55.316Z,8.55
2018-10-02T07:48:55.325Z,8.58
2018-10-02T07:49:55.167Z,8.62
2018-10-02T07:50:55.236Z,8.66
2018-10-02T07:51:55.091Z,8.71
2018-10-02T07:52:55.060Z,8.74
2018-10-02T07:53:55.321Z,8.78
2018-10-02T07:54:55.022Z,8.83
2018-10-02T07:55:55.089Z,8.88
2018-10-02T07:56:55.583Z,8.88
2018-10-02T07:57:55.053Z,8.95
2018-10-02T07:58:55.405Z,8.96
2018-10-02T07:59:55.073Z,9
2018-10-02T08:00:55.155Z,8.98
2018-10-02T08:01:55.319Z,8.99
2018-10-02T08:02:55.494Z,9.03
2018-10-02T08:03:55.029Z,9.04
2018-10-02T08:04:55.348Z,9.07
2018-10-02T08:05:55.387Z,9.14
2018-10-02T08:06:55.029Z,9.19
2018-10-02T08:07:55.035Z,9.21
2018-10-02T08:08:55.272Z,9.26
2018-10-02T08:09:55.374Z,9.29
2018-10-02T08:10:55.032Z,9.31
2018-10-02T08:11:55.296Z,9.31
2018-10-02T08:12:55.037Z,9.34
2018-10-02T08:13:55.097Z,9.4
2018-10-02T08:14:55.206Z,9.48
2018-10-02T08:15:55.023Z,9.45
2018-10-02T08:16:55.047Z,9.49
2018-10-02T08:17:55.381Z,9.51
2018-10-02T08:18:55.836Z,9.54
2018-10-02T08:19:55.253Z,9.59
2018-10-02T08:20:55.488Z,9.57
2018-10-02T08:21:55.072Z,9.58
2018-10-02T08:22:55.144Z,9.45
2018-10-02T08:23:55.384Z,9.47
2018-10-02T08:24:55.130Z,9.52
2018-10-02T08:25:55.016Z,9.52
2018-10-02T08:26:55.601Z,9.49
2018-10-02T08:27:55.197Z,9.44
2018-10-02T08:28:55.045Z,9.45
2018-10-02T08:29:55.384Z,9.48
2018-10-02T08:30:55.022Z,9.45
2018-10-02T08:31:55.124Z,9.42
2018-10-02T08:32:55.176Z,9.41
2018-10-02T08:33:55.060Z,9.44
2018-10-02T08:34:54.962Z,9.48
2018-10-02T08:35:55.651Z,9.48
2018-10-02T08:36:54.975Z,9.51
2018-10-02T08:37:55.001Z,9.49
2018-10-02T08:38:55.117Z,9.55
2018-10-02T08:39:54.975Z,9.52
2018-10-02T08:40:54.984Z,9.48
2018-10-02T08:41:55.314Z,9.48
2018-10-02T08:42:55.089Z,9.54
2018-10-02T08:43:55.440Z,9.58
2018-10-02T08:44:55.211Z,9.63
2018-10-02T08:45:55.008Z,9.72
2018-10-02T08:46:54.974Z,9.79
2018-10-02T08:47:55.177Z,9.82
2018-10-02T08:48:55.030Z,9.86
2018-10-02T08:49:54.965Z,9.9
2018-10-02T08:50:55.101Z,9.93
2018-10-02T08:51:55.732Z,9.92
2018-10-02T08:52:55.010Z,10
2018-10-02T08:54:55.192Z,10.06
2018-10-02T08:55:54.963Z,10.07
2018-10-02T08:56:55.136Z,10.1
2018-10-02T08:57:55.201Z,10.19
2018-10-02T08:59:55.064Z,10.3
2018-10-02T09:00:55.136Z,10.31
2018-10-02T09:01:55.118Z,10.35
2018-10-02T09:02:55.076Z,10.39
2018-10-02T09:03:54.576Z,10.44
2018-10-02T09:04:55.086Z,10.51
2018-10-02T09:05:55.248Z,10.52
2018-10-02T09:06:54.730Z,10.53
2018-10-02T09:07:55.018Z,10.56
2018-10-02T09:08:55.039Z,10.56
2018-10-02T09:09:55.089Z,10.58
2018-10-02T09:10:55.088Z,10.58
2018-10-02T09:11:55.074Z,10.58
2018-10-02T09:12:55.236Z,10.58
2018-10-02T09:13:55.423Z,10.62
2018-10-02T09:14:54.954Z,10.64
2018-10-02T09:15:55.985Z,10.61
2018-10-02T09:16:54.944Z,10.62
2018-10-02T09:17:54.961Z,10.66
2018-10-02T09:18:55.342Z,10.68
2018-10-02T09:19:55.028Z,10.66
2018-10-02T09:20:55.190Z,10.71
2018-10-02T09:21:55.358Z,10.71
2018-10-02T09:22:54.971Z,10.71
2018-10-02T09:23:55.373Z,10.75
2018-10-02T09:24:55.313Z,10.78
2018-10-02T09:25:55.017Z,10.78
2018-10-02T09:26:55.180Z,10.75
2018-10-02T09:27:55.126Z,10.79
2018-10-02T09:28:54.923Z,10.76
2018-10-02T09:29:55.006Z,10.73
2018-10-02T09:30:55.712Z,10.68
2018-10-02T09:31:55.025Z,10.66
2018-10-02T09:32:55.048Z,10.65
2018-10-02T09:33:55.330Z,10.68
2018-10-02T09:34:55.121Z,10.69
2018-10-02T09:35:55.143Z,10.69
2018-10-02T09:36:55.245Z,10.71
2018-10-02T09:37:54.976Z,10.73
2018-10-02T09:38:55.155Z,10.69
2018-10-02T09:39:55.276Z,10.71
2018-10-02T09:40:55.205Z,10.72
2018-10-02T09:41:54.898Z,10.72
2018-10-02T09:42:55.523Z,10.73
2018-10-02T09:43:55.379Z,10.72
2018-10-02T09:44:55.022Z,10.73
2018-10-02T09:45:55.189Z,10.76
2018-10-02T09:46:54.993Z,10.82
2018-10-02T09:47:55.151Z,10.84
2018-10-02T09:48:55.075Z,10.87
2018-10-02T09:49:55.384Z,10.94
2018-10-02T09:50:55.463Z,10.93
2018-10-02T09:51:55.480Z,10.93
2018-10-02T09:52:55.015Z,10.97
2018-10-02T09:53:54.863Z,10.89
2018-10-02T09:54:55.206Z,10.9
2018-10-02T09:55:55.069Z,10.87
2018-10-02T09:56:55.126Z,10.86
2018-10-02T09:57:54.871Z,10.87
2018-10-02T09:58:54.860Z,10.79
2018-10-02T09:59:54.859Z,10.78
2018-10-02T10:00:55.025Z,10.79
2018-10-02T10:01:54.834Z,10.78
2018-10-02T10:02:55.034Z,10.78
2018-10-02T10:03:54.976Z,10.79
2018-10-02T10:04:54.848Z,10.78
2018-10-02T10:05:54.906Z,10.82
2018-10-02T10:06:54.869Z,10.82
2018-10-02T10:07:54.868Z,10.83
2018-10-02T10:08:54.893Z,10.83
2018-10-02T10:09:54.863Z,10.84
2018-10-02T10:10:54.865Z,10.84
2018-10-02T10:11:54.837Z,10.89
2018-10-02T10:12:54.906Z,10.89
2018-10-02T10:13:54.828Z,10.93
2018-10-02T10:14:54.860Z,10.96
2018-10-02T10:15:54.869Z,10.93
2018-10-02T10:16:55.050Z,10.9
2018-10-02T10:17:54.956Z,10.9
2018-10-02T10:18:55.024Z,10.92
2018-10-02T10:19:55.034Z,10.92
2018-10-02T10:20:55.257Z,10.93
2018-10-02T10:21:54.824Z,10.99
2018-10-02T10:22:55.339Z,11
2018-10-02T10:23:55.016Z,11.01
2018-10-02T10:24:54.919Z,11.06
2018-10-02T10:25:54.882Z,11.03
2018-10-02T10:26:55.097Z,11.07
2018-10-02T10:27:54.847Z,11.01
2018-10-02T10:28:55.269Z,11.03
2018-10-02T10:29:54.825Z,11.1
2018-10-02T10:30:54.815Z,11.08
2018-10-02T10:31:55.122Z,11.03
2018-10-02T10:32:54.960Z,11.04
2018-10-02T10:33:55.243Z,11.06
2018-10-02T10:34:55.039Z,11.03
2018-10-02T10:35:54.822Z,11.04
2018-10-02T10:36:54.889Z,11.07
2018-10-02T10:37:54.817Z,11.1
2018-10-02T10:38:54.824Z,11.08
2018-10-02T10:39:55.352Z,11.08
2018-10-02T10:40:55.261Z,11.08
2018-10-02T10:41:54.945Z,11.11
2018-10-02T10:42:54.998Z,11.11
2018-10-02T10:43:54.843Z,11.1
2018-10-02T10:44:54.855Z,11.08
2018-10-02T10:45:54.827Z,11.12
2018-10-02T10:46:55.002Z,11.08
2018-10-02T10:47:55.040Z,11.08
2018-10-02T10:48:55.035Z,11.1
2018-10-02T10:49:54.895Z,11.15
2018-10-02T10:50:54.776Z,11.2
2018-10-02T10:51:55.637Z,11.2
2018-10-02T10:52:55.174Z,11.2
2018-10-02T10:53:54.872Z,11.21
2018-10-02T10:54:54.786Z,11.2
2018-10-02T10:55:54.861Z,11.21
2018-10-02T10:56:55.078Z,11.2
2018-10-02T10:57:54.916Z,11.2
2018-10-02T10:58:54.930Z,11.18
2018-10-02T10:59:54.914Z,11.17
2018-10-02T11:00:55.009Z,11.18
2018-10-02T11:01:54.828Z,11.18
2018-10-02T11:02:55.221Z,11.15
2018-10-02T11:03:54.811Z,11.18
2018-10-02T11:04:55.029Z,11.21
2018-10-02T11:05:54.753Z,11.24
2018-10-02T11:06:54.784Z,11.24
2018-10-02T11:07:55.086Z,11.24
2018-10-02T11:08:54.971Z,11.24
2018-10-02T11:09:54.952Z,11.25
2018-10-02T11:10:55.208Z,11.3
2018-10-02T11:11:54.741Z,11.35
2018-10-02T11:12:54.761Z,11.35
2018-10-02T11:13:55.038Z,11.34
2018-10-02T11:14:54.848Z,11.38
2018-10-02T11:15:54.886Z,11.41
2018-10-02T11:16:54.958Z,11.42
2018-10-02T11:17:54.771Z,11.39
2018-10-02T11:18:54.917Z,11.37
2018-10-02T11:19:54.829Z,11.31
2018-10-02T11:20:54.815Z,11.31
2018-10-02T11:21:54.770Z,11.28
2018-10-02T11:22:54.739Z,11.28
2018-10-02T11:23:54.846Z,11.3
2018-10-02T11:24:54.743Z,11.3
2018-10-02T11:25:55.286Z,11.3
2018-10-02T11:26:54.736Z,11.25
2018-10-02T11:27:54.722Z,11.27
2018-10-02T11:28:54.724Z,11.27
2018-10-02T11:29:54.954Z,11.28
2018-10-02T11:30:54.762Z,11.28
2018-10-02T11:31:54.720Z,11.3
2018-10-02T11:32:54.732Z,11.32
2018-10-02T11:33:54.753Z,11.3
2018-10-02T11:34:54.719Z,11.27
2018-10-02T11:35:54.721Z,11.28
2018-10-02T11:36:54.742Z,11.3
2018-10-02T11:37:54.719Z,11.3
2018-10-02T11:38:54.706Z,11.3
2018-10-02T11:39:54.741Z,11.27
2018-10-02T11:40:54.716Z,11.28
2018-10-02T11:41:54.766Z,11.31
2018-10-02T11:42:54.773Z,11.3
2018-10-02T11:43:54.879Z,11.3
2018-10-02T11:44:55.792Z,11.31
2018-10-02T11:45:54.841Z,11.3
2018-10-02T11:46:54.740Z,11.22
2018-10-02T11:47:54.714Z,11.2
2018-10-02T11:48:54.771Z,11.18
2018-10-02T11:49:55.683Z,11.17
2018-10-02T11:50:55.056Z,11.15
2018-10-02T11:51:54.712Z,11.11
2018-10-02T11:52:54.971Z,11.11
2018-10-02T11:53:54.864Z,11.08
2018-10-02T11:54:54.674Z,11.1
2018-10-02T11:55:55.079Z,11.07
2018-10-02T11:56:54.689Z,11.07
2018-10-02T11:57:54.674Z,11.06
2018-10-02T11:58:54.821Z,11.06
2018-10-02T11:59:55.108Z,11.01
2018-10-02T12:00:55.237Z,10.99
2018-10-02T12:01:55.119Z,10.97
2018-10-02T12:02:54.882Z,10.97
2018-10-02T12:03:54.726Z,10.99
2018-10-02T12:04:54.705Z,10.94
2018-10-02T12:05:54.660Z,10.99
2018-10-02T12:06:55.210Z,11
2018-10-02T12:07:54.960Z,11.01
2018-10-02T12:08:55.017Z,11.01
2018-10-02T12:09:54.755Z,11.04
2018-10-02T12:10:54.727Z,11.04
2018-10-02T12:11:54.660Z,10.96
2018-10-02T12:12:55.072Z,10.93
2018-10-02T12:13:55.135Z,10.92
2018-10-02T12:14:54.890Z,10.89
2018-10-02T12:15:54.756Z,10.93
2018-10-02T12:16:54.804Z,10.93
2018-10-02T12:17:55.051Z,10.93
2018-10-02T12:18:54.859Z,10.92
2018-10-02T12:19:56.084Z,10.92
2018-10-02T12:20:54.724Z,10.92
2018-10-02T12:21:54.748Z,10.96
2018-10-02T12:22:54.673Z,10.97
2018-10-02T12:23:54.969Z,11.01
2018-10-02T12:24:54.729Z,11.01
2018-10-02T12:25:54.750Z,11.04
2018-10-02T12:26:54.661Z,11.04
2018-10-02T12:27:54.678Z,11.07
2018-10-02T12:28:54.666Z,11.06
2018-10-02T12:29:54.805Z,11.08
2018-10-02T12:30:54.643Z,11.08
2018-10-02T12:31:55.439Z,11.01
2018-10-02T12:32:54.655Z,11.03
2018-10-02T12:33:54.766Z,11.07
2018-10-02T12:35:54.636Z,11.03
2018-10-02T12:36:54.951Z,11.04
2018-10-02T12:37:54.664Z,11.04
2018-10-02T12:38:54.755Z,11.06
2018-10-02T12:39:54.778Z,11.07
2018-10-02T12:40:54.739Z,11.11
2018-10-02T12:41:54.883Z,11.11
2018-10-02T12:42:54.666Z,11.1
2018-10-02T12:43:54.675Z,11.12
2018-10-02T12:44:54.770Z,11.12
2018-10-02T12:45:54.678Z,11.17
2018-10-02T12:46:55.029Z,11.2
2018-10-02T12:47:56.800Z,11.21
2018-10-02T12:48:58.163Z,11.22
2018-10-02T12:49:57.042Z,11.18
2018-10-02T12:50:58.673Z,11.2
2018-10-02T12:51:58.054Z,11.17
2018-10-02T12:52:59.171Z,11.2
2018-10-02T12:53:54.620Z,11.22
2018-10-02T12:54:54.612Z,11.22
2018-10-02T12:55:54.618Z,11.18
2018-10-02T12:56:54.624Z,11.18
2018-10-02T12:57:54.631Z,11.21
2018-10-02T12:58:54.710Z,11.21
2018-10-02T12:59:54.678Z,11.21
2018-10-02T13:00:54.672Z,11.12
2018-10-02T13:01:54.595Z,11.17
2018-10-02T13:02:55.560Z,11.18
2018-10-02T13:03:54.639Z,11.2
2018-10-02T13:04:54.581Z,11.21
2018-10-02T13:05:54.575Z,11.22
2018-10-02T13:06:54.708Z,11.22
2018-10-02T13:07:54.858Z,11.27
2018-10-02T13:08:54.606Z,11.25
2018-10-02T13:09:54.902Z,11.25
2018-10-02T13:10:54.896Z,11.22
2018-10-02T13:11:54.660Z,11.21
2018-10-02T13:12:54.826Z,11.24
2018-10-02T13:13:54.716Z,11.25
2018-10-02T13:14:54.610Z,11.28
2018-10-02T13:15:54.820Z,11.31
2018-10-02T13:16:54.699Z,11.32
2018-10-02T13:17:54.610Z,11.31